createdAt,value
2023-10-13T00:02:06.599Z,17.72
2023-10-13T00:04:36.912Z,17.72
2023-10-13T00:07:05.595Z,17.64
2023-10-13T00:09:38.807Z,17.66
2023-10-13T00:12:11.145Z,17.68
2023-10-13T00:14:42.071Z,17.63
2023-10-13T00:17:11.783Z,17.58
2023-10-13T00:19:46.612Z,17.47
2023-10-13T00:22:20.505Z,17.40
2023-10-13T00:24:48.085Z,17.36
2023-10-13T00:27:30.806Z,17.32
2023-10-13T00:30:21.392Z,17.31
2023-10-13T00:32:57.758Z,17.31
2023-10-13T00:35:26.590Z,17.33
2023-10-13T00:37:56.444Z,17.35
2023-10-13T00:40:30.951Z,17.31
2023-10-13T00:43:17.921Z,17.30
2023-10-13T00:46:09.102Z,17.29
2023-10-13T00:48:44.559Z,17.21
2023-10-13T00:51:24.023Z,17.25
2023-10-13T00:53:51.780Z,17.23
2023-10-13T00:56:28.243Z,17.15
2023-10-13T00:59:00.368Z,17.12
2023-10-13T01:01:33.925Z,17.12
2023-10-13T01:04:03.505Z,17.15
2023-10-13T01:06:30.868Z,17.16
2023-10-13T01:09:17.835Z,17.17
2023-10-13T01:11:54.200Z,17.09
2023-10-13T01:14:24.421Z,17.10
2023-10-13T01:16:54.283Z,17.13
2023-10-13T01:19:25.840Z,17.14
2023-10-13T01:22:03.595Z,17.04
2023-10-13T01:24:38.091Z,17.03
2023-10-13T01:27:19.815Z,17.02
2023-10-13T01:29:51.769Z,17.05
2023-10-13T01:32:21.224Z,16.95
2023-10-13T01:34:49.971Z,16.87
2023-10-13T01:37:17.656Z,16.83
2023-10-13T01:39:48.882Z,16.81
2023-10-13T01:42:22.800Z,16.83
2023-10-13T01:44:52.703Z,16.80
2023-10-13T01:47:19.785Z,16.78
2023-10-13T01:50:24.674Z,16.78
2023-10-13T01:53:00.960Z,16.80
2023-10-13T01:55:29.706Z,16.75
2023-10-13T01:57:56.570Z,16.72
2023-10-13T02:00:23.526Z,16.61
2023-10-13T02:02:52.174Z,16.52
2023-10-13T02:05:19.459Z,16.48
2023-10-13T02:07:46.529Z,16.47
2023-10-13T02:10:14.245Z,16.48
2023-10-13T02:12:44.325Z,16.47
2023-10-13T02:15:27.320Z,16.50
2023-10-13T02:17:56.760Z,16.48
2023-10-13T02:20:26.791Z,16.49
2023-10-13T02:22:53.590Z,16.48
2023-10-13T02:25:36.824Z,16.52
2023-10-13T02:28:09.848Z,16.44
2023-10-13T02:30:49.791Z,16.44
2023-10-13T02:33:22.929Z,16.43
2023-10-13T02:35:56.292Z,16.42
2023-10-13T02:38:47.476Z,16.41
2023-10-13T02:41:27.435Z,16.37
2023-10-13T02:43:55.605Z,16.37
2023-10-13T02:46:24.043Z,16.41
2023-10-13T02:49:02.999Z,16.39
2023-10-13T02:51:36.589Z,16.36
2023-10-13T02:54:13.220Z,16.38
2023-10-13T02:56:58.788Z,16.35
2023-10-13T02:59:41.447Z,16.24
2023-10-13T03:02:29.335Z,16.13
2023-10-13T03:05:10.923Z,16.03
2023-10-13T03:07:38.614Z,15.99
2023-10-13T03:10:12.646Z,15.96
2023-10-13T03:12:41.306Z,15.90
2023-10-13T03:15:12.467Z,15.83
2023-10-13T03:17:44.728Z,15.76
2023-10-13T03:20:17.201Z,15.72
2023-10-13T03:22:47.767Z,15.74
2023-10-13T03:25:25.907Z,15.71
2023-10-13T03:27:53.322Z,15.72
2023-10-13T03:30:22.132Z,15.67
2023-10-13T03:32:54.811Z,15.62
2023-10-13T03:35:25.610Z,15.56
2023-10-13T03:37:53.416Z,15.55
2023-10-13T03:40:21.116Z,15.58
2023-10-13T03:43:12.834Z,15.59
2023-10-13T03:45:45.149Z,15.59
2023-10-13T03:48:25.867Z,15.67
2023-10-13T03:51:05.006Z,15.61
2023-10-13T03:53:36.979Z,15.59
2023-10-13T03:56:10.876Z,15.60
2023-10-13T03:58:47.134Z,15.54
2023-10-13T04:01:18.519Z,15.52
2023-10-13T04:04:05.097Z,15.54
2023-10-13T04:06:55.910Z,15.60
2023-10-13T04:09:30.264Z,15.58
2023-10-13T04:12:05.323Z,15.57
2023-10-13T04:14:56.329Z,15.59
2023-10-13T04:17:29.743Z,15.60
2023-10-13T04:20:08.080Z,15.58
2023-10-13T04:22:47.171Z,15.59
2023-10-13T04:25:43.480Z,15.47
2023-10-13T04:28:17.818Z,15.41
2023-10-13T04:30:57.634Z,15.39
2023-10-13T04:33:37.280Z,15.34
2023-10-13T04:36:38.729Z,15.33
2023-10-13T04:39:05.728Z,15.28
2023-10-13T04:41:46.568Z,15.31
2023-10-13T04:44:35.456Z,15.33
2023-10-13T04:47:03.383Z,15.29
2023-10-13T04:49:35.912Z,15.37
2023-10-13T04:52:11.708Z,15.39
2023-10-13T04:54:50.956Z,15.34
2023-10-13T04:57:24.917Z,15.31
2023-10-13T05:00:04.832Z,15.35
2023-10-13T05:02:41.782Z,15.40
2023-10-13T05:05:26.891Z,15.37
2023-10-13T05:08:12.603Z,15.37
2023-10-13T05:10:58.008Z,15.32
2023-10-13T05:13:43.532Z,15.34
2023-10-13T05:16:29.035Z,15.30
2023-10-13T05:19:14.485Z,15.24
2023-10-13T05:21:59.997Z,15.23
2023-10-13T05:24:45.390Z,15.26
2023-10-13T05:27:32.004Z,15.28
2023-10-13T05:30:17.340Z,15.33
2023-10-13T05:33:02.666Z,15.34
2023-10-13T05:35:51.661Z,15.29
2023-10-13T05:38:37.093Z,15.29
2023-10-13T05:41:26.348Z,15.29
2023-10-13T05:44:11.687Z,15.27
2023-10-13T05:46:39.309Z,15.27
2023-10-13T05:49:18.215Z,15.30
2023-10-13T05:51:59.310Z,15.33
2023-10-13T05:54:44.915Z,15.44
2023-10-13T05:57:30.472Z,15.47
2023-10-13T06:00:15.926Z,15.47
2023-10-13T06:03:01.472Z,15.48
2023-10-13T06:05:46.682Z,15.49
2023-10-13T06:08:32.276Z,15.47
2023-10-13T06:11:22.303Z,15.43
2023-10-13T06:14:08.396Z,15.41
2023-10-13T06:16:54.288Z,15.45
2023-10-13T06:19:39.766Z,15.49
2023-10-13T06:22:25.194Z,15.58
2023-10-13T06:25:10.732Z,15.62
2023-10-13T06:27:55.970Z,15.61
2023-10-13T06:30:22.832Z,15.61
2023-10-13T06:32:52.076Z,15.58
2023-10-13T06:35:24.834Z,15.57
2023-10-13T06:37:52.763Z,15.52
2023-10-13T06:40:27.409Z,15.56
2023-10-13T06:42:56.921Z,15.58
2023-10-13T06:45:28.402Z,15.55
2023-10-13T06:47:56.985Z,15.51
2023-10-13T06:50:26.039Z,15.53
2023-10-13T06:52:55.883Z,15.56
2023-10-13T06:55:28.974Z,15.61
2023-10-13T06:58:01.442Z,15.64
2023-10-13T07:00:31.138Z,15.69
2023-10-13T07:03:06.948Z,15.71
2023-10-13T07:05:42.652Z,15.82
2023-10-13T07:08:14.868Z,15.91
2023-10-13T07:11:14.889Z,16.01
2023-10-13T07:13:48.610Z,16.04
2023-10-13T07:16:29.347Z,16.13
2023-10-13T07:18:57.458Z,16.22
2023-10-13T07:21:33.060Z,16.32
2023-10-13T07:24:10.039Z,16.41
2023-10-13T07:26:44.493Z,16.50
2023-10-13T07:29:13.321Z,16.60
2023-10-13T07:31:46.986Z,16.71
2023-10-13T07:34:21.807Z,16.82
2023-10-13T07:36:50.847Z,16.95
2023-10-13T07:39:25.135Z,17.09
2023-10-13T07:42:05.288Z,17.26
2023-10-13T07:44:34.475Z,17.52
2023-10-13T07:47:04.873Z,17.73
2023-10-13T07:49:37.630Z,17.93
2023-10-13T07:52:36.092Z,18.13
2023-10-13T07:55:13.427Z,18.40
2023-10-13T07:57:56.651Z,18.65
2023-10-13T08:00:39.838Z,19.00
2023-10-13T08:03:20.775Z,19.34
2023-10-13T08:06:07.714Z,19.58
2023-10-13T08:08:41.682Z,19.86
2023-10-13T08:11:32.061Z,20.08
2023-10-13T08:14:22.573Z,20.14
2023-10-13T08:17:02.534Z,20.27
2023-10-13T08:19:50.551Z,20.45
2023-10-13T08:22:21.301Z,20.72
2023-10-13T08:24:50.222Z,20.95
2023-10-13T08:27:50.669Z,21.21
2023-10-13T08:30:27.681Z,21.42
2023-10-13T08:33:05.772Z,21.55
2023-10-13T08:35:36.847Z,21.78
2023-10-13T08:38:30.368Z,21.82
2023-10-13T08:41:19.411Z,22.00
2023-10-13T08:43:52.449Z,22.24
2023-10-13T08:46:32.326Z,22.40
2023-10-13T08:49:15.458Z,22.42
2023-10-13T08:52:06.301Z,22.55
2023-10-13T08:54:46.952Z,22.82
2023-10-13T08:57:32.450Z,22.96
2023-10-13T09:00:19.437Z,23.07
2023-10-13T09:03:06.752Z,23.27
2023-10-13T09:06:02.727Z,23.42
2023-10-13T09:08:36.679Z,23.51
2023-10-13T09:11:14.930Z,23.69
2023-10-13T09:13:47.803Z,23.85
2023-10-13T09:16:45.091Z,24.03
2023-10-13T09:19:13.070Z,24.24
2023-10-13T09:21:41.455Z,24.37
2023-10-13T09:24:23.057Z,24.54
2023-10-13T09:26:54.472Z,24.76
2023-10-13T09:29:22.695Z,24.91
2023-10-13T09:32:03.439Z,25.15
2023-10-13T09:34:35.546Z,25.40
2023-10-13T09:37:06.146Z,25.87
2023-10-13T09:39:45.715Z,26.17
2023-10-13T09:42:17.981Z,26.51
2023-10-13T09:44:52.696Z,26.65
2023-10-13T09:47:38.880Z,26.78
2023-10-13T09:50:15.968Z,26.70
2023-10-13T09:52:47.420Z,26.68
2023-10-13T09:55:40.304Z,26.78
2023-10-13T09:58:12.696Z,26.82
2023-10-13T10:01:11.586Z,26.77
2023-10-13T10:03:53.437Z,26.91
2023-10-13T10:06:40.161Z,26.97
2023-10-13T10:09:16.002Z,27.22
2023-10-13T10:12:09.237Z,27.29
2023-10-13T10:15:21.587Z,27.64
2023-10-13T10:17:51.105Z,27.72
2023-10-13T10:20:45.889Z,27.94
2023-10-13T10:23:45.304Z,28.12
2023-10-13T10:26:24.397Z,28.17
2023-10-13T10:28:51.566Z,28.41
2023-10-13T10:31:20.796Z,28.59
2023-10-13T10:33:51.723Z,28.82
2023-10-13T10:36:30.963Z,28.85
2023-10-13T10:39:02.416Z,29.01
2023-10-13T10:41:40.026Z,29.16
2023-10-13T10:44:17.753Z,29.25
2023-10-13T10:46:58.691Z,29.42
2023-10-13T10:49:29.327Z,29.66
2023-10-13T10:52:05.610Z,29.76
2023-10-13T10:54:35.649Z,29.90
2023-10-13T10:57:12.065Z,30.12
2023-10-13T10:59:40.200Z,30.33
2023-10-13T11:02:09.909Z,30.46
2023-10-13T11:04:57.618Z,30.61
2023-10-13T11:07:25.357Z,30.63
2023-10-13T11:10:07.552Z,30.98
2023-10-13T11:12:35.514Z,30.75
2023-10-13T11:15:34.835Z,31.15
2023-10-13T11:18:06.963Z,31.71
2023-10-13T11:20:44.853Z,31.77
2023-10-13T11:23:13.741Z,32.02
2023-10-13T11:25:40.912Z,32.31
2023-10-13T11:28:28.929Z,32.92
2023-10-13T11:31:00.731Z,32.91
2023-10-13T11:33:29.828Z,33.15
2023-10-13T11:35:58.419Z,33.38
2023-10-13T11:38:41.838Z,33.44
2023-10-13T11:41:09.825Z,33.60
2023-10-13T11:43:43.678Z,33.19
2023-10-13T11:46:11.847Z,33.38
2023-10-13T11:48:42.626Z,33.60
2023-10-13T11:51:18.648Z,33.61
2023-10-13T11:53:46.613Z,33.71
2023-10-13T11:56:13.526Z,33.38
2023-10-13T11:58:42.300Z,33.70
2023-10-13T12:01:14.812Z,34.21
2023-10-13T12:04:03.821Z,34.54
2023-10-13T12:06:36.058Z,34.52
2023-10-13T12:09:19.917Z,34.60
2023-10-13T12:11:52.105Z,34.70
2023-10-13T12:14:23.295Z,34.55
2023-10-13T12:16:54.708Z,35.12
2023-10-13T12:19:28.598Z,35.13
2023-10-13T12:21:56.489Z,35.21
2023-10-13T12:24:36.761Z,35.05
2023-10-13T12:27:20.214Z,35.01
2023-10-13T12:29:53.106Z,35.41
2023-10-13T12:32:26.674Z,35.09
2023-10-13T12:35:02.853Z,35.40
2023-10-13T12:37:51.015Z,35.56
2023-10-13T12:40:39.529Z,35.46
2023-10-13T12:43:25.338Z,35.37
2023-10-13T12:46:12.115Z,35.75
2023-10-13T12:48:59.357Z,35.29
2023-10-13T12:51:32.185Z,34.16
2023-10-13T12:54:16.974Z,33.36
2023-10-13T12:56:44.451Z,32.47
2023-10-13T12:59:14.648Z,31.90
2023-10-13T13:01:45.373Z,31.40
2023-10-13T13:04:22.122Z,31.73
2023-10-13T13:06:54.926Z,31.24
2023-10-13T13:09:27.784Z,30.60
2023-10-13T13:11:59.533Z,30.28
2023-10-13T13:14:30.773Z,30.07
2023-10-13T13:17:07.299Z,29.58
2023-10-13T13:19:42.547Z,29.62
2023-10-13T13:22:13.324Z,31.50
2023-10-13T13:24:45.891Z,32.84
2023-10-13T13:27:23.418Z,33.44
2023-10-13T13:29:50.476Z,33.71
2023-10-13T13:32:24.921Z,33.92
2023-10-13T13:35:08.990Z,34.11
2023-10-13T13:37:38.517Z,34.08
2023-10-13T13:40:16.225Z,33.92
2023-10-13T13:42:44.691Z,33.94
2023-10-13T13:45:23.166Z,33.63
2023-10-13T13:47:54.701Z,33.27
2023-10-13T13:50:31.145Z,33.19
2023-10-13T13:52:59.407Z,33.04
2023-10-13T13:55:32.346Z,33.23
2023-10-13T13:57:59.710Z,32.84
2023-10-13T14:00:38.754Z,32.95
2023-10-13T14:03:14.153Z,32.98
2023-10-13T14:05:44.762Z,32.48
2023-10-13T14:08:16.397Z,31.32
2023-10-13T14:11:02.371Z,30.48
2023-10-13T14:13:47.768Z,29.95
2023-10-13T14:16:21.559Z,29.62
2023-10-13T14:18:51.737Z,29.46
2023-10-13T14:21:20.027Z,29.39
2023-10-13T14:23:54.651Z,29.13
2023-10-13T14:26:26.304Z,29.09
2023-10-13T14:29:02.343Z,29.08
2023-10-13T14:31:31.039Z,29.07
2023-10-13T14:33:58.359Z,28.90
2023-10-13T14:36:30.330Z,28.68
2023-10-13T14:38:57.685Z,28.60
2023-10-13T14:41:24.844Z,28.60
2023-10-13T14:43:52.077Z,28.55
2023-10-13T14:46:26.885Z,28.54
2023-10-13T14:48:54.892Z,28.42
2023-10-13T14:51:22.069Z,28.25
2023-10-13T14:53:52.587Z,28.09
2023-10-13T14:56:21.185Z,28.02
2023-10-13T14:58:48.165Z,28.01
2023-10-13T15:01:16.353Z,28.00
2023-10-13T15:03:48.683Z,27.98
2023-10-13T15:06:27.475Z,27.94
2023-10-13T15:08:57.789Z,27.81
2023-10-13T15:11:41.930Z,27.73
2023-10-13T15:14:14.519Z,27.68
2023-10-13T15:16:44.212Z,27.67
2023-10-13T15:19:11.579Z,27.64
2023-10-13T15:21:41.116Z,27.58
2023-10-13T15:24:24.738Z,27.52
2023-10-13T15:26:58.321Z,27.43
2023-10-13T15:29:31.380Z,27.42
2023-10-13T15:32:01.277Z,27.40
2023-10-13T15:34:29.747Z,27.38
2023-10-13T15:36:58.964Z,27.34
2023-10-13T15:39:29.580Z,27.30
2023-10-13T15:42:00.659Z,27.23
2023-10-13T15:44:31.328Z,27.22
2023-10-13T15:49:35.184Z,27.12
2023-10-13T15:52:02.664Z,27.09
2023-10-13T15:54:29.613Z,27.04
2023-10-13T15:56:56.676Z,26.99
2023-10-13T15:59:26.795Z,26.92
2023-10-13T16:01:58.897Z,26.82
2023-10-13T16:04:26.687Z,26.76
2023-10-13T16:06:53.860Z,26.63
2023-10-13T16:09:25.227Z,26.46
2023-10-13T16:11:54.134Z,26.25
2023-10-13T16:14:22.333Z,26.17
2023-10-13T16:16:53.887Z,26.04
2023-10-13T16:19:23.022Z,25.94
2023-10-13T16:21:55.709Z,25.64
2023-10-13T16:24:23.449Z,25.33
2023-10-13T16:26:56.728Z,25.10
2023-10-13T16:29:23.889Z,25.09
2023-10-13T16:31:50.933Z,25.09
2023-10-13T16:34:19.394Z,25.00
2023-10-13T16:36:49.142Z,24.87
2023-10-13T16:39:17.107Z,24.56
2023-10-13T16:41:48.275Z,24.45
2023-10-13T16:44:16.785Z,24.37
2023-10-13T16:46:44.016Z,24.25
2023-10-13T16:49:12.469Z,24.16
2023-10-13T16:51:39.681Z,24.07
2023-10-13T16:54:09.490Z,23.94
2023-10-13T16:56:39.853Z,23.71
2023-10-13T16:59:08.048Z,23.61
2023-10-13T17:01:35.472Z,23.64
2023-10-13T17:04:05.731Z,23.64
2023-10-13T17:06:34.032Z,23.59
2023-10-13T17:09:00.944Z,23.45
2023-10-13T17:11:27.909Z,23.39
2023-10-13T17:13:54.735Z,23.36
2023-10-13T17:16:24.007Z,23.26
2023-10-13T17:18:53.040Z,23.26
2023-10-13T17:21:27.109Z,23.30
2023-10-13T17:23:54.878Z,23.32
2023-10-13T17:26:27.575Z,23.26
2023-10-13T17:29:03.788Z,23.26
2023-10-13T17:31:34.134Z,23.18
2023-10-13T17:34:01.787Z,23.18
2023-10-13T17:36:30.356Z,23.19
2023-10-13T17:38:57.827Z,23.15
2023-10-13T17:41:25.663Z,23.14
2023-10-13T17:43:52.640Z,23.11
2023-10-13T17:46:22.181Z,22.95
2023-10-13T17:48:49.798Z,22.82
2023-10-13T17:51:16.862Z,22.68
2023-10-13T17:53:43.846Z,22.43
2023-10-13T17:56:17.147Z,22.22
2023-10-13T17:58:45.663Z,22.15
2023-10-13T18:01:19.361Z,22.11
2023-10-13T18:03:53.049Z,22.20
2023-10-13T18:06:23.641Z,22.26
2023-10-13T18:08:55.167Z,22.17
2023-10-13T18:11:25.128Z,22.04
2023-10-13T18:13:53.738Z,21.97
2023-10-13T18:16:25.905Z,21.85
2023-10-13T18:18:56.794Z,21.73
2023-10-13T18:21:24.702Z,21.57
2023-10-13T18:23:54.184Z,21.54
2023-10-13T18:26:21.219Z,21.44
2023-10-13T18:28:51.897Z,21.34
2023-10-13T18:31:19.237Z,21.33
2023-10-13T18:33:46.504Z,21.28
2023-10-13T18:36:25.706Z,21.25
2023-10-13T18:38:52.942Z,21.24
2023-10-13T18:41:20.806Z,21.24
2023-10-13T18:43:48.641Z,21.25
2023-10-13T18:46:17.488Z,21.25
2023-10-13T18:48:46.526Z,21.11
2023-10-13T18:51:19.304Z,21.06
2023-10-13T18:53:49.478Z,21.04
2023-10-13T18:56:22.064Z,21.02
2023-10-13T18:58:55.897Z,21.02
2023-10-13T19:01:30.803Z,20.92
2023-10-13T19:04:09.734Z,20.79
2023-10-13T19:06:36.747Z,20.67
2023-10-13T19:09:07.029Z,20.60
2023-10-13T19:11:37.631Z,20.67
2023-10-13T19:14:10.920Z,20.67
2023-10-13T19:16:42.244Z,20.60
2023-10-13T19:19:09.389Z,20.56
2023-10-13T19:21:37.865Z,20.52
2023-10-13T19:24:06.969Z,20.41
2023-10-13T19:26:36.785Z,20.31
2023-10-13T19:29:07.180Z,20.26
2023-10-13T19:31:37.574Z,20.25
2023-10-13T19:34:05.976Z,20.24
2023-10-13T19:36:34.320Z,20.26
2023-10-13T19:39:07.594Z,20.25
2023-10-13T19:41:36.953Z,20.20
2023-10-13T19:44:05.603Z,20.16
2023-10-13T19:46:37.321Z,20.17
2023-10-13T19:49:06.014Z,20.20
2023-10-13T19:51:35.101Z,20.19
2023-10-13T19:54:04.158Z,20.12
2023-10-13T19:56:33.344Z,20.13
2023-10-13T19:59:03.675Z,20.13
2023-10-13T20:01:34.552Z,20.12
2023-10-13T20:04:08.756Z,20.12
2023-10-13T20:09:26.179Z,20.07
2023-10-13T20:11:53.916Z,20.07
2023-10-13T20:14:22.101Z,20.07
2023-10-13T20:16:52.283Z,20.12
2023-10-13T20:19:19.518Z,20.11
2023-10-13T20:21:48.045Z,20.10
2023-10-13T20:24:16.473Z,20.10
2023-10-13T20:26:43.632Z,20.09
2023-10-13T20:29:19.431Z,20.11
2023-10-13T20:31:50.865Z,20.09
2023-10-13T20:34:24.284Z,20.09
2023-10-13T20:36:55.791Z,20.06
2023-10-13T20:39:25.923Z,20.02
2023-10-13T20:41:54.301Z,20.01
2023-10-13T20:44:28.606Z,19.96
2023-10-13T20:46:58.693Z,19.88
2023-10-13T20:49:27.610Z,19.93
2023-10-13T20:51:54.959Z,19.96
2023-10-13T20:54:22.507Z,20.02
2023-10-13T20:56:49.315Z,20.01
2023-10-13T20:59:16.563Z,19.96
2023-10-13T21:01:44.075Z,19.92
2023-10-13T21:04:11.330Z,19.90
2023-10-13T21:06:41.659Z,19.93
2023-10-13T21:09:13.825Z,20.03
2023-10-13T21:11:41.891Z,20.04
2023-10-13T21:14:09.845Z,20.09
2023-10-13T21:16:36.806Z,20.30
2023-10-13T21:19:06.177Z,20.50
2023-10-13T21:21:35.060Z,20.98
2023-10-13T21:24:05.605Z,21.41
2023-10-13T21:26:32.383Z,21.77
2023-10-13T21:28:59.311Z,21.99
2023-10-13T21:31:26.503Z,22.09
2023-10-13T21:33:55.664Z,22.14
2023-10-13T21:36:27.329Z,22.22
2023-10-13T21:38:58.955Z,22.26
2023-10-13T21:41:26.383Z,22.41
2023-10-13T21:43:55.455Z,22.53
2023-10-13T21:46:25.280Z,22.48
2023-10-13T21:48:53.458Z,22.13
2023-10-13T21:51:25.937Z,21.90
2023-10-13T21:53:53.871Z,21.67
2023-10-13T21:56:25.311Z,21.66
2023-10-13T21:58:52.753Z,21.71
2023-10-13T22:01:29.090Z,21.93
2023-10-13T22:04:11.544Z,22.29
2023-10-13T22:06:42.081Z,22.48
2023-10-13T22:09:10.653Z,22.61
2023-10-13T22:11:41.213Z,22.72
2023-10-13T22:14:13.565Z,22.85
2023-10-13T22:16:40.476Z,22.88
2023-10-13T22:19:07.564Z,22.91
2023-10-13T22:21:34.758Z,22.99
2023-10-13T22:24:02.158Z,23.04
2023-10-13T22:26:32.929Z,23.08
2023-10-13T22:29:00.176Z,23.13
2023-10-13T22:31:27.926Z,23.18
2023-10-13T22:33:56.243Z,23.22
2023-10-13T22:36:23.858Z,23.34
2023-10-13T22:38:59.939Z,23.46
2023-10-13T22:41:34.897Z,23.48
2023-10-13T22:44:07.078Z,23.57
2023-10-13T22:46:34.173Z,23.58
2023-10-13T22:49:01.089Z,23.59
2023-10-13T22:51:28.419Z,23.58
2023-10-13T22:53:55.361Z,23.61
2023-10-13T22:56:22.427Z,23.65
2023-10-13T22:58:49.687Z,23.65
2023-10-13T23:01:19.370Z,23.61
2023-10-13T23:03:57.496Z,23.55
2023-10-13T23:06:35.246Z,23.52
2023-10-13T23:09:23.544Z,23.48
2023-10-13T23:11:50.635Z,23.41
2023-10-13T23:14:19.523Z,23.31
2023-10-13T23:16:51.200Z,23.20
2023-10-13T23:19:20.362Z,23.13
2023-10-13T23:21:48.927Z,23.10
2023-10-13T23:24:16.162Z,23.05
2023-10-13T23:26:43.219Z,23.01
2023-10-13T23:29:10.985Z,22.99
2023-10-13T23:31:39.022Z,22.97
2023-10-13T23:34:07.111Z,22.91
2023-10-13T23:36:35.445Z,22.85
2023-10-13T23:39:11.094Z,22.71
2023-10-13T23:41:42.682Z,22.46
2023-10-13T23:44:18.388Z,22.24
2023-10-13T23:46:45.323Z,22.02
2023-10-13T23:49:20.135Z,21.89
2023-10-13T23:51:54.470Z,21.77
2023-10-13T23:54:22.031Z,21.75
2023-10-13T23:56:49.322Z,21.67
2023-10-13T23:59:28.332Z,21.58
